createdAt,value
2022-12-03T00:01:34.028Z,100590.56
2022-12-03T00:04:02.184Z,100591.44
2022-12-03T00:06:34.366Z,100586.72
2022-12-03T00:09:02.783Z,100583.34
2022-12-03T00:11:32.120Z,100587.00
2022-12-03T00:14:00.046Z,100591.78
2022-12-03T00:16:28.252Z,100585.72
2022-12-03T00:18:56.337Z,100589.38
2022-12-03T00:21:24.859Z,100594.53
2022-12-03T00:23:52.970Z,100599.78
2022-12-03T00:26:20.985Z,100584.72
2022-12-03T00:28:50.272Z,100608.19
2022-12-03T00:31:18.582Z,100610.28
2022-12-03T00:33:46.534Z,100617.88
2022-12-03T00:36:14.431Z,100612.31
2022-12-03T00:38:42.390Z,100622.28
2022-12-03T00:41:10.277Z,100622.38
2022-12-03T00:43:38.145Z,100619.63
2022-12-03T00:46:07.651Z,100623.06
2022-12-03T00:48:35.646Z,100609.44
2022-12-03T00:51:03.567Z,100626.56
2022-12-03T00:53:31.414Z,100625.03
2022-12-03T00:56:01.559Z,100629.41
2022-12-03T00:58:29.451Z,100619.00
2022-12-03T01:00:57.309Z,100628.31
2022-12-03T01:03:26.700Z,100621.16
2022-12-03T01:05:54.640Z,100619.81
2022-12-03T01:08:22.586Z,100618.88
2022-12-03T01:10:50.489Z,100627.63
2022-12-03T01:13:18.453Z,100625.88
2022-12-03T01:15:46.377Z,100626.16
2022-12-03T01:18:14.339Z,100627.19
2022-12-03T01:20:43.780Z,100620.84
2022-12-03T01:23:11.719Z,100619.50
2022-12-03T01:25:39.667Z,100638.78
2022-12-03T01:28:07.582Z,100641.13
2022-12-03T01:30:55.631Z,100637.59
2022-12-03T01:33:22.678Z,100627.13
2022-12-03T01:35:52.003Z,100635.53
2022-12-03T01:38:19.919Z,100629.03
2022-12-03T01:40:49.945Z,100640.31
2022-12-03T01:43:17.964Z,100639.41
2022-12-03T01:45:45.872Z,100639.81
2022-12-03T01:48:16.681Z,100637.22
2022-12-03T01:50:45.399Z,100627.91
2022-12-03T01:53:18.314Z,100646.53
2022-12-03T01:55:48.940Z,100649.91
2022-12-03T01:58:21.236Z,100654.22
2022-12-03T02:00:49.133Z,100650.72
2022-12-03T02:03:22.191Z,100656.63
2022-12-03T02:05:50.393Z,100651.53
2022-12-03T02:08:33.993Z,100646.56
2022-12-03T02:11:06.799Z,100637.06
2022-12-03T02:13:35.028Z,100641.03
2022-12-03T02:16:03.024Z,100652.16
2022-12-03T02:18:31.073Z,100650.31
2022-12-03T02:21:05.712Z,100647.84
2022-12-03T02:23:41.237Z,100647.00
2022-12-03T02:26:10.736Z,100622.94
2022-12-03T02:28:39.229Z,100650.00
2022-12-03T02:31:07.865Z,100660.19
2022-12-03T02:33:36.040Z,100667.22
2022-12-03T02:36:04.367Z,100657.09
2022-12-03T02:38:35.369Z,100664.63
2022-12-03T02:41:06.923Z,100657.50
2022-12-03T02:43:35.488Z,100646.19
2022-12-03T02:46:04.825Z,100635.72
2022-12-03T02:48:35.873Z,100652.56
2022-12-03T02:51:08.310Z,100664.50
2022-12-03T02:53:42.432Z,100666.19
2022-12-03T02:56:13.131Z,100668.16
2022-12-03T02:58:44.966Z,100677.78
2022-12-03T03:01:15.475Z,100661.41
2022-12-03T03:03:45.676Z,100648.53
2022-12-03T03:06:14.300Z,100647.84
2022-12-03T03:08:43.501Z,100636.25
2022-12-03T03:11:12.244Z,100652.00
2022-12-03T03:13:42.310Z,100640.22
2022-12-03T03:16:11.586Z,100641.88
2022-12-03T03:18:39.675Z,100648.41
2022-12-03T03:21:08.238Z,100649.75
2022-12-03T03:23:36.137Z,100650.59
2022-12-03T03:26:19.348Z,100656.34
2022-12-03T03:28:50.986Z,100656.84
2022-12-03T03:31:22.567Z,100666.47
2022-12-03T03:33:51.355Z,100674.22
2022-12-03T03:36:20.194Z,100669.28
2022-12-03T03:38:48.746Z,100666.31
2022-12-03T03:41:17.558Z,100659.81
2022-12-03T03:43:47.170Z,100667.22
2022-12-03T03:46:17.594Z,100673.91
2022-12-03T03:48:45.584Z,100679.97
2022-12-03T03:51:14.472Z,100666.72
2022-12-03T03:53:45.759Z,100690.09
2022-12-03T03:56:13.903Z,100687.22
2022-12-03T03:58:42.072Z,100693.00
2022-12-03T04:01:12.210Z,100694.50
2022-12-03T04:03:42.122Z,100693.50
2022-12-03T04:06:10.498Z,100691.06
2022-12-03T04:08:38.445Z,100693.47
2022-12-03T04:11:24.016Z,100697.03
2022-12-03T04:13:52.000Z,100695.81
2022-12-03T04:16:19.970Z,100691.19
2022-12-03T04:18:49.358Z,100693.81
2022-12-03T04:21:36.810Z,100702.03
2022-12-03T04:24:06.051Z,100700.88
2022-12-03T04:26:51.835Z,100702.84
2022-12-03T04:29:20.232Z,100707.06
2022-12-03T04:32:06.113Z,100713.25
2022-12-03T04:34:53.303Z,100708.78
2022-12-03T04:37:21.567Z,100721.59
2022-12-03T04:39:49.566Z,100723.22
2022-12-03T04:42:17.632Z,100718.38
2022-12-03T04:44:45.531Z,100719.00
2022-12-03T04:47:14.665Z,100715.66
2022-12-03T04:49:45.664Z,100716.84
2022-12-03T04:52:15.629Z,100727.41
2022-12-03T04:54:44.224Z,100709.59
2022-12-03T04:57:13.095Z,100715.50
2022-12-03T04:59:41.170Z,100709.75
2022-12-03T05:02:09.189Z,100709.06
2022-12-03T05:04:37.550Z,100708.28
2022-12-03T05:07:06.859Z,100708.63
2022-12-03T05:09:34.828Z,100703.38
2022-12-03T05:12:03.807Z,100705.06
2022-12-03T05:14:31.751Z,100702.16
2022-12-03T05:16:59.773Z,100712.56
2022-12-03T05:19:47.845Z,100714.78
2022-12-03T05:22:16.137Z,100727.09
2022-12-03T05:24:44.031Z,100719.72
2022-12-03T05:27:11.976Z,100726.00
2022-12-03T05:29:39.940Z,100753.09
2022-12-03T05:32:07.893Z,100742.44
2022-12-03T05:34:35.813Z,100722.41
2022-12-03T05:37:03.696Z,100741.63
2022-12-03T05:39:33.075Z,100738.25
2022-12-03T05:42:18.270Z,100752.03
2022-12-03T05:44:46.197Z,100754.16
2022-12-03T05:47:14.296Z,100751.44
2022-12-03T05:49:42.222Z,100732.66
2022-12-03T05:52:10.168Z,100745.47
2022-12-03T05:54:39.392Z,100754.69
2022-12-03T05:57:07.299Z,100746.41
2022-12-03T05:59:35.335Z,100749.41
2022-12-03T06:02:03.310Z,100750.66
2022-12-03T06:04:31.265Z,100753.84
2022-12-03T06:06:59.192Z,100764.00
2022-12-03T06:09:27.049Z,100764.44
2022-12-03T06:11:56.617Z,100774.66
2022-12-03T06:14:24.585Z,100778.75
2022-12-03T06:16:52.521Z,100779.16
2022-12-03T06:19:20.560Z,100776.41
2022-12-03T06:21:48.525Z,100773.91
2022-12-03T06:24:16.449Z,100783.66
2022-12-03T06:26:44.401Z,100782.16
2022-12-03T06:29:13.694Z,100780.25
2022-12-03T06:31:41.839Z,100789.81
2022-12-03T06:34:09.763Z,100781.94
2022-12-03T06:36:37.694Z,100780.28
2022-12-03T06:39:05.665Z,100782.66
2022-12-03T06:41:33.540Z,100787.53
2022-12-03T06:44:01.567Z,100776.22
2022-12-03T06:46:30.980Z,100778.69
2022-12-03T06:48:58.939Z,100780.50
2022-12-03T06:51:26.926Z,100766.28
2022-12-03T06:53:55.121Z,100778.22
2022-12-03T06:56:22.992Z,100763.44
2022-12-03T06:58:50.909Z,100783.59
2022-12-03T07:01:18.927Z,100798.47
2022-12-03T07:03:48.456Z,100786.06
2022-12-03T07:06:16.670Z,100796.19
2022-12-03T07:08:44.733Z,100794.72
2022-12-03T07:11:26.583Z,100793.56
2022-12-03T07:13:56.234Z,100793.03
2022-12-03T07:16:25.965Z,100800.06
2022-12-03T07:18:55.528Z,100789.34
2022-12-03T07:21:23.501Z,100796.47
2022-12-03T07:23:51.438Z,100788.22
2022-12-03T07:26:19.362Z,100786.47
2022-12-03T07:28:48.323Z,100793.56
2022-12-03T07:31:16.482Z,100792.56
2022-12-03T07:33:44.524Z,100798.63
2022-12-03T07:36:13.986Z,100777.47
2022-12-03T07:38:41.877Z,100793.25
2022-12-03T07:41:09.913Z,100792.28
2022-12-03T07:43:37.890Z,100788.69
2022-12-03T07:46:06.069Z,100796.28
2022-12-03T07:48:33.977Z,100788.78
2022-12-03T07:51:01.888Z,100794.56
2022-12-03T07:53:31.513Z,100801.75
2022-12-03T07:55:59.401Z,100766.19
2022-12-03T07:58:27.336Z,100800.25
2022-12-03T08:00:55.425Z,100801.84
2022-12-03T08:03:23.401Z,100794.09
2022-12-03T08:05:51.347Z,100797.47
2022-12-03T08:08:19.338Z,100795.97
2022-12-03T08:10:48.745Z,100798.97
2022-12-03T08:13:18.680Z,100798.16
2022-12-03T08:15:47.298Z,100794.78
2022-12-03T08:18:17.083Z,100796.06
2022-12-03T08:20:48.154Z,100803.41
2022-12-03T08:23:18.545Z,100798.97
2022-12-03T08:25:48.739Z,100799.78
2022-12-03T08:28:19.133Z,100790.94
2022-12-03T08:30:59.071Z,100800.34
2022-12-03T08:33:29.866Z,100790.81
2022-12-03T08:35:57.815Z,100782.16
2022-12-03T08:38:26.275Z,100786.84
2022-12-03T08:40:56.329Z,100792.13
2022-12-03T08:43:26.042Z,100793.94
2022-12-03T08:45:55.063Z,100801.53
2022-12-03T08:48:28.213Z,100799.03
2022-12-03T08:50:58.828Z,100799.25
2022-12-03T08:53:32.638Z,100798.31
2022-12-03T08:56:03.737Z,100800.25
2022-12-03T08:58:40.658Z,100798.53
2022-12-03T09:01:33.990Z,100791.50
2022-12-03T09:04:27.381Z,100791.50
2022-12-03T09:06:55.973Z,100792.06
2022-12-03T09:09:24.522Z,100784.91
2022-12-03T09:11:54.695Z,100783.88
2022-12-03T09:14:23.730Z,100784.00
2022-12-03T09:16:56.652Z,100774.25
2022-12-03T09:19:25.380Z,100780.47
2022-12-03T09:21:53.660Z,100787.19
2022-12-03T09:24:21.928Z,100787.03
2022-12-03T09:26:50.009Z,100781.53
2022-12-03T09:29:19.317Z,100780.00
2022-12-03T09:31:47.392Z,100771.06
2022-12-03T09:34:15.649Z,100772.19
2022-12-03T09:36:43.535Z,100775.78
2022-12-03T09:39:11.557Z,100761.22
2022-12-03T09:41:39.776Z,100762.44
2022-12-03T09:44:13.756Z,100764.50
2022-12-03T09:46:49.079Z,100766.19
2022-12-03T09:49:19.109Z,100769.66
2022-12-03T09:51:47.706Z,100750.31
2022-12-03T09:54:24.133Z,100761.84
2022-12-03T09:56:52.935Z,100762.84
2022-12-03T09:59:22.852Z,100758.63
2022-12-03T10:01:53.517Z,100761.59
2022-12-03T10:04:21.882Z,100754.84
2022-12-03T10:06:49.948Z,100748.31
2022-12-03T10:09:27.280Z,100748.41
2022-12-03T10:11:58.469Z,100750.13
2022-12-03T10:14:26.871Z,100754.84
2022-12-03T10:16:56.424Z,100758.09
2022-12-03T10:19:28.714Z,100754.38
2022-12-03T10:21:56.814Z,100755.56
2022-12-03T10:24:28.866Z,100732.00
2022-12-03T10:26:58.595Z,100741.22
2022-12-03T10:29:33.238Z,100743.25
2022-12-03T10:32:05.542Z,100738.44
2022-12-03T10:34:35.030Z,100734.25
2022-12-03T10:37:15.077Z,100664.06
2022-12-03T10:39:59.935Z,100737.69
2022-12-03T10:42:30.438Z,100728.28
2022-12-03T10:45:13.667Z,100736.78
2022-12-03T10:47:43.512Z,100728.28
2022-12-03T10:50:18.861Z,100728.94
2022-12-03T10:52:47.992Z,100742.56
2022-12-03T10:55:17.077Z,100735.00
2022-12-03T10:57:46.143Z,100734.81
2022-12-03T11:00:18.585Z,100729.59
2022-12-03T11:02:56.161Z,100725.91
2022-12-03T11:05:27.900Z,100741.97
2022-12-03T11:07:56.837Z,100718.41
2022-12-03T11:10:25.090Z,100740.00
2022-12-03T11:13:31.627Z,100732.91
2022-12-03T11:16:00.523Z,100725.72
2022-12-03T11:19:01.698Z,100728.66
2022-12-03T11:21:29.871Z,100731.69
2022-12-03T11:24:20.066Z,100724.56
2022-12-03T11:27:22.083Z,100720.88
2022-12-03T11:29:52.824Z,100726.50
2022-12-03T11:33:04.999Z,100729.22
2022-12-03T11:36:12.714Z,100723.06
2022-12-03T11:38:53.951Z,100722.38
2022-12-03T11:41:26.049Z,100713.22
2022-12-03T11:44:29.513Z,100722.56
2022-12-03T11:47:00.405Z,100718.69
2022-12-03T11:49:36.668Z,100721.09
2022-12-03T11:52:21.409Z,100729.97
2022-12-03T11:54:53.164Z,100724.16
2022-12-03T11:57:36.956Z,100724.78
2022-12-03T12:00:23.612Z,100720.84
2022-12-03T12:02:55.758Z,100723.81
2022-12-03T12:05:28.283Z,100712.94
2022-12-03T12:07:59.193Z,100718.16
2022-12-03T12:10:45.605Z,100713.09
2022-12-03T12:13:28.969Z,100714.03
2022-12-03T12:15:57.122Z,100691.09
2022-12-03T12:18:39.095Z,100703.72
2022-12-03T12:21:47.510Z,100706.56
2022-12-03T12:24:46.831Z,100708.16
2022-12-03T12:27:16.347Z,100708.75
2022-12-03T12:29:47.289Z,100710.94
2022-12-03T12:32:17.209Z,100712.47
2022-12-03T12:34:47.473Z,100708.00
2022-12-03T12:37:20.282Z,100708.03
2022-12-03T12:39:49.768Z,100711.72
2022-12-03T12:42:30.901Z,100715.06
2022-12-03T12:45:02.402Z,100710.44
2022-12-03T12:47:31.817Z,100708.03
2022-12-03T12:50:00.314Z,100714.78
2022-12-03T12:52:28.915Z,100718.47
2022-12-03T12:55:04.586Z,100687.31
2022-12-03T12:57:35.020Z,100723.44
2022-12-03T13:00:05.897Z,100727.19
2022-12-03T13:02:43.290Z,100707.41
2022-12-03T13:05:13.815Z,100719.38
2022-12-03T13:07:43.455Z,100723.06
2022-12-03T13:10:26.321Z,100720.00
2022-12-03T13:12:54.330Z,100726.75
2022-12-03T13:15:40.686Z,100727.00
2022-12-03T13:18:22.904Z,100721.38
2022-12-03T13:20:50.862Z,100728.09
2022-12-03T13:23:28.774Z,100725.41
2022-12-03T13:26:09.249Z,100722.72
2022-12-03T13:28:46.558Z,100720.03
2022-12-03T13:31:23.330Z,100724.91
2022-12-03T13:33:52.290Z,100725.91
2022-12-03T13:36:23.319Z,100724.47
2022-12-03T13:38:51.250Z,100728.31
2022-12-03T13:41:39.787Z,100724.91
2022-12-03T13:44:19.484Z,100726.41
2022-12-03T13:46:48.265Z,100718.50
2022-12-03T13:49:21.644Z,100713.44
2022-12-03T13:51:50.292Z,100715.38
2022-12-03T13:54:23.186Z,100721.69
2022-12-03T13:56:52.547Z,100716.63
2022-12-03T13:59:25.763Z,100716.31
2022-12-03T14:01:54.496Z,100718.06
2022-12-03T14:04:22.500Z,100725.53
2022-12-03T14:06:50.638Z,100708.38
2022-12-03T14:09:18.578Z,100721.16
2022-12-03T14:12:03.928Z,100722.47
2022-12-03T14:14:33.395Z,100727.69
2022-12-03T14:17:01.353Z,100727.53
2022-12-03T14:19:29.437Z,100712.56
2022-12-03T14:21:58.265Z,100742.84
2022-12-03T14:24:26.265Z,100738.88
2022-12-03T14:26:54.304Z,100740.59
2022-12-03T14:29:22.280Z,100735.66
2022-12-03T14:31:51.687Z,100746.50
2022-12-03T14:34:19.907Z,100742.56
2022-12-03T14:36:47.856Z,100742.78
2022-12-03T14:39:15.767Z,100743.44
2022-12-03T14:42:01.154Z,100747.09
2022-12-03T14:44:29.052Z,100754.34
2022-12-03T14:46:58.320Z,100749.56
2022-12-03T14:49:26.402Z,100751.91
2022-12-03T14:51:54.485Z,100756.53
2022-12-03T14:54:22.576Z,100754.78
2022-12-03T14:56:50.481Z,100752.94
2022-12-03T14:59:23.001Z,100763.25
2022-12-03T15:01:54.306Z,100757.00
2022-12-03T15:04:23.714Z,100757.56
2022-12-03T15:06:51.627Z,100758.31
2022-12-03T15:09:19.664Z,100762.00
2022-12-03T15:11:47.617Z,100747.56
2022-12-03T15:14:15.597Z,100749.50
2022-12-03T15:16:43.619Z,100744.16
2022-12-03T15:19:11.677Z,100747.44
2022-12-03T15:21:41.293Z,100753.75
2022-12-03T15:24:10.443Z,100757.56
2022-12-03T15:26:38.367Z,100757.63
2022-12-03T15:29:06.267Z,100752.63
2022-12-03T15:31:34.279Z,100756.41
2022-12-03T15:34:02.420Z,100763.88
2022-12-03T15:36:30.526Z,100746.88
2022-12-03T15:38:59.868Z,100765.59
2022-12-03T15:41:29.984Z,100768.63
2022-12-03T15:43:59.275Z,100770.41
2022-12-03T15:46:28.465Z,100745.28
2022-12-03T15:48:59.799Z,100750.56
2022-12-03T15:51:27.878Z,100785.19
2022-12-03T15:53:58.333Z,100773.69
2022-12-03T15:56:27.652Z,100785.53
2022-12-03T15:58:55.576Z,100781.78
2022-12-03T16:01:23.557Z,100789.03
2022-12-03T16:03:51.544Z,100795.63
2022-12-03T16:06:19.690Z,100800.41
2022-12-03T16:08:48.177Z,100798.63
2022-12-03T16:11:16.171Z,100796.22
2022-12-03T16:13:45.454Z,100800.06
2022-12-03T16:16:13.552Z,100801.88
2022-12-03T16:18:41.604Z,100804.75
2022-12-03T16:21:09.545Z,100809.69
2022-12-03T16:23:37.541Z,100809.09
2022-12-03T16:26:05.511Z,100811.53
2022-12-03T16:28:33.394Z,100815.66
2022-12-03T16:31:02.700Z,100807.13
2022-12-03T16:33:30.719Z,100797.63
2022-12-03T16:35:58.611Z,100807.59
2022-12-03T16:38:26.514Z,100812.72
2022-12-03T16:40:54.460Z,100818.19
2022-12-03T16:43:22.458Z,100816.78
2022-12-03T16:46:09.915Z,100812.34
2022-12-03T16:48:39.225Z,100814.94
2022-12-03T16:51:07.427Z,100819.03
2022-12-03T16:53:35.532Z,100810.94
2022-12-03T16:56:03.581Z,100824.28
2022-12-03T16:58:31.581Z,100827.19
2022-12-03T17:00:59.485Z,100822.69
2022-12-03T17:03:33.471Z,100788.34
2022-12-03T17:06:04.035Z,100827.66
2022-12-03T17:08:32.448Z,100829.34
2022-12-03T17:11:00.437Z,100835.19
2022-12-03T17:13:28.377Z,100839.47
2022-12-03T17:15:56.472Z,100835.09
2022-12-03T17:18:24.471Z,100839.16
2022-12-03T17:20:52.566Z,100838.13
2022-12-03T17:23:21.864Z,100847.97
2022-12-03T17:25:49.902Z,100847.28
2022-12-03T17:28:17.778Z,100836.25
2022-12-03T17:30:45.865Z,100847.47
2022-12-03T17:33:13.802Z,100840.22
2022-12-03T17:35:42.326Z,100843.75
2022-12-03T17:38:11.191Z,100835.03
2022-12-03T17:40:40.518Z,100851.44
2022-12-03T17:43:08.346Z,100848.91
2022-12-03T17:45:36.880Z,100857.03
2022-12-03T17:48:05.393Z,100858.72
2022-12-03T17:50:33.357Z,100838.31
2022-12-03T17:53:01.322Z,100856.56
2022-12-03T17:55:38.325Z,100858.03
2022-12-03T17:58:12.017Z,100856.66
2022-12-03T18:00:40.258Z,100866.16
2022-12-03T18:03:08.334Z,100864.31
2022-12-03T18:05:36.354Z,100871.34
2022-12-03T18:08:04.590Z,100871.19
2022-12-03T18:10:32.652Z,100870.56
2022-12-03T18:13:02.175Z,100877.88
2022-12-03T18:15:32.154Z,100881.84
2022-12-03T18:18:01.149Z,100884.41
2022-12-03T18:20:29.231Z,100880.91
2022-12-03T18:22:59.280Z,100876.72
2022-12-03T18:25:28.149Z,100860.66
2022-12-03T18:27:56.371Z,100883.44
2022-12-03T18:30:24.599Z,100878.53
2022-12-03T18:32:53.942Z,100885.78
2022-12-03T18:35:21.940Z,100878.31
2022-12-03T18:37:50.784Z,100875.50
2022-12-03T18:40:22.187Z,100882.28
2022-12-03T18:42:50.214Z,100879.78
2022-12-03T18:45:18.702Z,100890.41
2022-12-03T18:47:46.830Z,100854.44
2022-12-03T18:50:16.180Z,100886.25
2022-12-03T18:52:44.116Z,100880.16
2022-12-03T18:55:18.472Z,100832.28
2022-12-03T18:57:46.816Z,100886.28
2022-12-03T19:00:16.040Z,100882.00
2022-12-03T19:05:35.043Z,100886.88
2022-12-03T19:08:03.269Z,100886.25
2022-12-03T19:10:31.448Z,100889.63
2022-12-03T19:12:59.379Z,100895.94
2022-12-03T19:15:27.420Z,100887.84
2022-12-03T19:17:55.311Z,100874.84
2022-12-03T19:20:23.402Z,100899.69
2022-12-03T19:22:52.870Z,100896.44
2022-12-03T19:25:20.789Z,100848.13
2022-12-03T19:27:50.236Z,100897.78
2022-12-03T19:30:18.685Z,100899.56
2022-12-03T19:32:46.680Z,100898.22
2022-12-03T19:35:15.965Z,100884.13
2022-12-03T19:37:44.023Z,100905.53
2022-12-03T19:40:14.065Z,100915.06
2022-12-03T19:42:42.174Z,100914.66
2022-12-03T19:45:11.609Z,100903.88
2022-12-03T19:47:39.553Z,100918.16
2022-12-03T19:50:10.074Z,100913.53
2022-12-03T19:52:38.042Z,100915.16
2022-12-03T19:55:06.695Z,100920.88
2022-12-03T19:57:35.999Z,100924.66
2022-12-03T20:00:05.307Z,100917.53
2022-12-03T20:02:33.653Z,100917.53
2022-12-03T20:05:01.686Z,100918.59
2022-12-03T20:07:31.172Z,100891.31
2022-12-03T20:09:59.203Z,100923.50
2022-12-03T20:12:27.133Z,100894.72
2022-12-03T20:14:56.841Z,100922.09
2022-12-03T20:17:24.908Z,100931.53
2022-12-03T20:19:53.215Z,100932.09
2022-12-03T20:22:22.385Z,100926.97
2022-12-03T20:24:50.380Z,100921.91
2022-12-03T20:27:22.631Z,100921.50
2022-12-03T20:29:51.148Z,100925.44
2022-12-03T20:32:20.634Z,100912.00
2022-12-03T20:34:49.661Z,100919.66
2022-12-03T20:37:18.233Z,100927.28
2022-12-03T20:39:46.160Z,100921.91
2022-12-03T20:42:14.166Z,100940.03
2022-12-03T20:44:42.182Z,100903.56
2022-12-03T20:47:10.096Z,100931.56
2022-12-03T20:49:40.302Z,100931.41
2022-12-03T20:52:08.457Z,100931.47
2022-12-03T20:54:36.397Z,100935.00
2022-12-03T20:57:04.896Z,100891.59
2022-12-03T20:59:32.952Z,100892.97
2022-12-03T21:02:01.106Z,100933.16
2022-12-03T21:04:29.460Z,100926.22
2022-12-03T21:06:59.013Z,100931.28
2022-12-03T21:09:26.939Z,100928.56
2022-12-03T21:11:56.859Z,100939.19
2022-12-03T21:14:24.884Z,100902.00
2022-12-03T21:17:07.778Z,100921.03
2022-12-03T21:19:36.948Z,100939.81
2022-12-03T21:22:06.871Z,100940.31
2022-12-03T21:24:35.628Z,100932.31
2022-12-03T21:27:03.990Z,100934.19
2022-12-03T21:29:32.001Z,100909.97
2022-12-03T21:31:59.844Z,100937.31
2022-12-03T21:34:34.172Z,100908.09
2022-12-03T21:37:06.950Z,100931.38
2022-12-03T21:39:36.676Z,100916.44
2022-12-03T21:42:19.409Z,100932.97
2022-12-03T21:44:53.591Z,100935.44
2022-12-03T21:47:21.601Z,100930.19
2022-12-03T21:49:49.706Z,100923.31
2022-12-03T21:52:17.625Z,100926.47
2022-12-03T21:54:47.185Z,100924.63
2022-12-03T21:57:15.131Z,100925.59
2022-12-03T21:59:43.086Z,100923.00
2022-12-03T22:02:11.442Z,100919.03
2022-12-03T22:04:39.878Z,100928.38
2022-12-03T22:07:07.851Z,100923.19
2022-12-03T22:09:35.831Z,100888.47
2022-12-03T22:12:05.567Z,100927.47
2022-12-03T22:14:33.570Z,100922.41
2022-12-03T22:17:01.538Z,100913.56
2022-12-03T22:19:29.609Z,100894.75
2022-12-03T22:22:00.276Z,100926.81
2022-12-03T22:24:28.135Z,100914.09
2022-12-03T22:26:56.288Z,100929.06
2022-12-03T22:29:25.586Z,100933.72
2022-12-03T22:31:53.535Z,100926.38
2022-12-03T22:34:21.486Z,100923.19
2022-12-03T22:36:49.572Z,100891.56
2022-12-03T22:39:17.566Z,100919.25
2022-12-03T22:41:45.604Z,100886.63
2022-12-03T22:44:13.844Z,100892.25
2022-12-03T22:46:43.338Z,100914.09
2022-12-03T22:49:13.444Z,100921.34
2022-12-03T22:51:41.497Z,100912.91
2022-12-03T22:54:09.469Z,100919.03
2022-12-03T22:56:37.431Z,100918.66
2022-12-03T22:59:05.669Z,100921.50
2022-12-03T23:01:35.609Z,100914.47
2022-12-03T23:04:06.124Z,100923.81
2022-12-03T23:06:35.618Z,100903.84
2022-12-03T23:09:05.327Z,100918.38
2022-12-03T23:11:33.302Z,100917.00
2022-12-03T23:14:01.192Z,100901.38
2022-12-03T23:16:31.698Z,100912.13
2022-12-03T23:19:01.876Z,100909.78
2022-12-03T23:21:34.129Z,100911.22
2022-12-03T23:24:03.974Z,100895.22
2022-12-03T23:26:36.034Z,100911.50
2022-12-03T23:29:04.447Z,100874.41
2022-12-03T23:31:33.944Z,100892.63
2022-12-03T23:34:02.471Z,100906.44
2022-12-03T23:36:33.994Z,100860.84
2022-12-03T23:39:02.312Z,100916.16
2022-12-03T23:41:30.374Z,100911.28
2022-12-03T23:43:58.552Z,100912.28
2022-12-03T23:46:28.449Z,100905.13
2022-12-03T23:48:58.484Z,100906.34
2022-12-03T23:51:27.386Z,100906.66
2022-12-03T23:53:57.355Z,100911.00
2022-12-03T23:56:28.078Z,100906.28
2022-12-03T23:58:56.419Z,100904.38
